• Join FlightAware (Why Join?)
  • Login
  • US Flag 
12:09PM EST


 

Airport Tracker/Info


-or-


 

Live Flight TrackerFlight Track Log ✈ NDU48 ✈ 23-Apr-2013 ✈ KGFK - KFAR

Flight Track Log - Related Links

Times and Time Zones

All times are in EDT time to prevent confusion due to time zone crossing. See the NDU48 flight status page for this flight to view local times or setup timezone preferences in your user account.

Time Position Orientation Groundspeed Altitude Reporting Facility
EDT Latitude Longitude Course Direction KTS MPH feet Rate Location/Type
05:59PM 47.9228 -97.1614 165° South 72 83 1,800  Level Minneapolis Center
06:00PM 47.9064 -97.1358 134° Southeast 79 91 2,600 787 Climbing Minneapolis Center
06:01PM 47.8900 -97.1136 138° Southeast 82 94 3,400 835 Climbing Minneapolis Center
06:02PM 47.8722 -97.1008 154° Southeast 80 92 4,200 646 Climbing Minneapolis Center
06:03PM 47.8494 -97.1111 197° South 81 93 4,800 375 Climbing Minneapolis Center
06:04PM 47.8189 -97.1158 186° South 107 123 5,000 102 Climbing Minneapolis Center
06:05PM 47.7833 -97.1153 179° South 115 132 5,000  Level Minneapolis Center
06:06PM 47.7461 -97.1050 169° South 116 133 5,000  Level Minneapolis Center
06:07PM 47.7189 -97.0947 166° South 122 140 5,000  Level Minneapolis Center
06:08PM 47.6867 -97.0814 164° South 123 142 5,000  Level Minneapolis Center
06:08PM 47.6797 -97.0806 175° South 122 140 5,000  Level Minneapolis Center
06:09PM 47.6481 -97.0689 166° South 122 140 5,000  Level Minneapolis Center
06:10PM 47.6108 -97.0542 165° South 123 142 5,000  Level Minneapolis Center
06:11PM 47.5761 -97.0439 169° South 123 142 5,000  Level Minneapolis Center
06:12PM 47.5436 -97.0325 167° South 124 143 5,000  Level Minneapolis Center
06:13PM 47.5094 -97.0192 165° South 122 140 5,000  Level Minneapolis Center
06:14PM 47.4742 -97.0069 167° South 124 143 5,000 48 Level Minneapolis Center
06:15PM 47.4389 -96.9956 168° South 124 143 5,100 48 Climbing Minneapolis Center
06:16PM 47.4044 -96.9819 165° South 121 139 5,100  Level Minneapolis Center
06:17PM 47.3706 -96.9639 160° South 125 144 5,100  Level Minneapolis Center
06:18PM 47.3442 -96.9303 139° Southeast 129 148 5,100 -290 Level Minneapolis Center
06:19PM 47.3153 -96.8931 139° Southeast 132 152 4,500 -488 Descending Minneapolis Center
06:20PM 47.2872 -96.8561 138° Southeast 130 150 4,100 -244 Descending Minneapolis Center
06:21PM 47.2592 -96.8200 139° Southeast 127 146 4,000 -339 Descending Minneapolis Center
06:22PM 47.2261 -96.8139 173° South 120 138 3,400 -484 Descending Minneapolis Center
06:23PM 47.1953 -96.8117 177° South 116 133 3,000 -194 Descending Minneapolis Center
06:24PM 47.1667 -96.8125 181° South 101 116 3,000  Level Minneapolis Center
06:25PM 47.1383 -96.8122 180° South 97 112 3,000 48 Level Minneapolis Center
06:26PM 47.1092 -96.8139 182° South 101 116 3,100 -48 Climbing Minneapolis Center
06:28PM 47.0792 -96.8142 180° South 103 119 2,900 -242 Descending Minneapolis Center
06:29PM 47.0486 -96.8147 181° South 105 121 2,600 -194 Descending Minneapolis Center
06:30PM 47.0219 -96.8142 179° South 101 116 2,500 -145 Descending Minneapolis Center
06:31PM 46.9942 -96.8150 181° South 97 112 2,300 -387 Descending Minneapolis Center
06:32PM 46.9689 -96.8150 180° South 88 101 1,700 -581 Descending Minneapolis Center